sensor_id;sensor_type;location;lat;lon;timestamp;P1;durP1;ratioP1;P2;durP2;ratioP2
77513;SDS011;66626;48.872;9.084;2024-03-23T00:54:01;7.97;;;2.90;;
77513;SDS011;66626;48.872;9.084;2024-03-23T00:56:28;5.93;;;3.08;;
77513;SDS011;66626;48.872;9.084;2024-03-23T00:58:53;6.15;;;3.60;;
77513;SDS011;66626;48.872;9.084;2024-03-23T01:01:18;6.97;;;3.00;;
77513;SDS011;66626;48.872;9.084;2024-03-23T01:03:44;7.68;;;3.40;;
77513;SDS011;66626;48.872;9.084;2024-03-23T01:06:09;7.75;;;3.30;;
77513;SDS011;66626;48.872;9.084;2024-03-23T01:08:34;7.05;;;3.00;;
77513;SDS011;66626;48.872;9.084;2024-03-23T01:11:00;7.30;;;4.30;;
77513;SDS011;66626;48.872;9.084;2024-03-23T01:13:26;5.70;;;2.53;;
77513;SDS011;66626;48.872;9.084;2024-03-23T01:15:53;6.72;;;2.50;;
77513;SDS011;66626;48.872;9.084;2024-03-23T01:18:20;6.78;;;2.67;;
77513;SDS011;66626;48.872;9.084;2024-03-23T01:20:46;5.63;;;2.55;;
77513;SDS011;66626;48.872;9.084;2024-03-23T01:23:11;5.55;;;2.45;;
77513;SDS011;66626;48.872;9.084;2024-03-23T01:25:36;5.38;;;2.63;;
77513;SDS011;66626;48.872;9.084;2024-03-23T01:28:02;9.02;;;3.05;;
77513;SDS011;66626;48.872;9.084;2024-03-23T01:30:27;7.60;;;3.67;;
77513;SDS011;66626;48.872;9.084;2024-03-23T01:32:53;6.75;;;2.90;;
77513;SDS011;66626;48.872;9.084;2024-03-23T01:35:18;6.57;;;3.15;;
77513;SDS011;66626;48.872;9.084;2024-03-23T01:37:44;6.57;;;2.85;;
77513;SDS011;66626;48.872;9.084;2024-03-23T01:40:09;6.78;;;3.20;;
77513;SDS011;66626;48.872;9.084;2024-03-23T01:42:35;7.50;;;2.90;;
77513;SDS011;66626;48.872;9.084;2024-03-23T01:45:00;6.95;;;3.03;;
77513;SDS011;66626;48.872;9.084;2024-03-23T01:47:26;7.28;;;3.10;;
77513;SDS011;66626;48.872;9.084;2024-03-23T01:49:51;8.82;;;3.20;;
77513;SDS011;66626;48.872;9.084;2024-03-23T01:52:17;6.80;;;2.88;;
77513;SDS011;66626;48.872;9.084;2024-03-23T01:54:42;6.43;;;2.63;;
77513;SDS011;66626;48.872;9.084;2024-03-23T01:57:08;8.13;;;2.97;;
77513;SDS011;66626;48.872;9.084;2024-03-23T01:59:34;4.70;;;2.90;;
77513;SDS011;66626;48.872;9.084;2024-03-23T02:01:59;11.32;;;3.03;;
77513;SDS011;66626;48.872;9.084;2024-03-23T02:04:24;5.22;;;3.00;;
77513;SDS011;66626;48.872;9.084;2024-03-23T02:06:49;6.55;;;3.05;;
77513;SDS011;66626;48.872;9.084;2024-03-23T02:09:15;6.70;;;2.53;;
77513;SDS011;66626;48.872;9.084;2024-03-23T02:11:40;7.28;;;2.60;;
77513;SDS011;66626;48.872;9.084;2024-03-23T02:14:06;6.72;;;2.72;;
77513;SDS011;66626;48.872;9.084;2024-03-23T02:16:32;6.28;;;3.22;;
77513;SDS011;66626;48.872;9.084;2024-03-23T02:18:58;4.18;;;2.05;;
77513;SDS011;66626;48.872;9.084;2024-03-23T02:21:23;5.35;;;2.60;;
77513;SDS011;66626;48.872;9.084;2024-03-23T02:23:48;5.57;;;2.20;;
77513;SDS011;66626;48.872;9.084;2024-03-23T02:26:14;5.50;;;2.60;;
77513;SDS011;66626;48.872;9.084;2024-03-23T02:28:40;4.90;;;2.20;;
77513;SDS011;66626;48.872;9.084;2024-03-23T02:31:05;5.95;;;1.90;;
77513;SDS011;66626;48.872;9.084;2024-03-23T02:33:30;6.10;;;2.47;;
77513;SDS011;66626;48.872;9.084;2024-03-23T02:35:57;5.55;;;2.08;;
77513;SDS011;66626;48.872;9.084;2024-03-23T02:38:22;5.10;;;2.45;;
77513;SDS011;66626;48.872;9.084;2024-03-23T02:40:48;5.85;;;2.53;;
77513;SDS011;66626;48.872;9.084;2024-03-23T02:43:13;5.30;;;2.10;;
77513;SDS011;66626;48.872;9.084;2024-03-23T02:45:38;7.28;;;2.45;;
77513;SDS011;66626;48.872;9.084;2024-03-23T02:48:04;7.32;;;2.60;;
77513;SDS011;66626;48.872;9.084;2024-03-23T02:50:29;6.18;;;2.30;;
77513;SDS011;66626;48.872;9.084;2024-03-23T02:52:54;5.90;;;2.40;;
77513;SDS011;66626;48.872;9.084;2024-03-23T02:55:20;7.07;;;2.47;;
77513;SDS011;66626;48.872;9.084;2024-03-23T02:57:46;5.32;;;2.53;;
77513;SDS011;66626;48.872;9.084;2024-03-23T03:00:11;6.07;;;2.10;;
77513;SDS011;66626;48.872;9.084;2024-03-23T03:02:37;4.40;;;1.85;;
77513;SDS011;66626;48.872;9.084;2024-03-23T03:05:03;4.82;;;2.20;;
77513;SDS011;66626;48.872;9.084;2024-03-23T03:07:30;6.35;;;2.47;;
77513;SDS011;66626;48.872;9.084;2024-03-23T03:09:56;5.95;;;2.70;;
77513;SDS011;66626;48.872;9.084;2024-03-23T03:12:21;5.50;;;2.25;;
77513;SDS011;66626;48.872;9.084;2024-03-23T03:14:46;5.45;;;2.85;;
77513;SDS011;66626;48.872;9.084;2024-03-23T03:17:12;5.32;;;2.30;;
77513;SDS011;66626;48.872;9.084;2024-03-23T03:19:38;5.28;;;2.05;;
77513;SDS011;66626;48.872;9.084;2024-03-23T03:22:03;4.57;;;2.00;;
77513;SDS011;66626;48.872;9.084;2024-03-23T03:24:29;5.88;;;2.50;;
77513;SDS011;66626;48.872;9.084;2024-03-23T03:26:54;4.65;;;1.90;;
77513;SDS011;66626;48.872;9.084;2024-03-23T03:29:20;4.18;;;2.15;;
77513;SDS011;66626;48.872;9.084;2024-03-23T03:31:45;5.05;;;2.28;;
77513;SDS011;66626;48.872;9.084;2024-03-23T03:34:11;5.05;;;1.88;;
77513;SDS011;66626;48.872;9.084;2024-03-23T03:36:36;6.72;;;2.53;;
77513;SDS011;66626;48.872;9.084;2024-03-23T03:39:02;8.88;;;2.28;;
77513;SDS011;66626;48.872;9.084;2024-03-23T03:41:31;6.22;;;2.42;;
77513;SDS011;66626;48.872;9.084;2024-03-23T03:43:57;5.47;;;2.03;;
77513;SDS011;66626;48.872;9.084;2024-03-23T03:46:26;5.45;;;2.47;;
77513;SDS011;66626;48.872;9.084;2024-03-23T03:48:51;5.55;;;2.00;;
77513;SDS011;66626;48.872;9.084;2024-03-23T03:51:17;8.05;;;2.42;;
77513;SDS011;66626;48.872;9.084;2024-03-23T03:53:42;5.65;;;2.33;;
77513;SDS011;66626;48.872;9.084;2024-03-23T03:56:07;5.97;;;2.33;;
77513;SDS011;66626;48.872;9.084;2024-03-23T03:58:33;5.07;;;2.20;;
77513;SDS011;66626;48.872;9.084;2024-03-23T04:00:58;5.20;;;2.47;;
77513;SDS011;66626;48.872;9.084;2024-03-23T04:03:23;5.78;;;2.17;;
77513;SDS011;66626;48.872;9.084;2024-03-23T04:05:52;5.80;;;2.50;;
77513;SDS011;66626;48.872;9.084;2024-03-23T04:08:18;3.85;;;1.85;;
77513;SDS011;66626;48.872;9.084;2024-03-23T04:10:44;5.95;;;2.15;;
77513;SDS011;66626;48.872;9.084;2024-03-23T04:13:10;4.40;;;2.00;;
77513;SDS011;66626;48.872;9.084;2024-03-23T04:15:36;5.22;;;2.33;;
77513;SDS011;66626;48.872;9.084;2024-03-23T04:18:02;6.05;;;2.85;;
77513;SDS011;66626;48.872;9.084;2024-03-23T04:20:27;6.30;;;2.97;;
77513;SDS011;66626;48.872;9.084;2024-03-23T04:22:55;7.45;;;2.75;;
77513;SDS011;66626;48.872;9.084;2024-03-23T04:25:20;6.90;;;3.55;;
77513;SDS011;66626;48.872;9.084;2024-03-23T04:27:45;5.65;;;2.72;;
77513;SDS011;66626;48.872;9.084;2024-03-23T04:30:11;5.82;;;2.42;;
77513;SDS011;66626;48.872;9.084;2024-03-23T04:32:37;16.17;;;6.20;;
77513;SDS011;66626;48.872;9.084;2024-03-23T04:35:03;14.00;;;6.53;;
77513;SDS011;66626;48.872;9.084;2024-03-23T04:37:34;13.23;;;7.22;;
77513;SDS011;66626;48.872;9.084;2024-03-23T04:40:00;11.23;;;6.05;;
77513;SDS011;66626;48.872;9.084;2024-03-23T04:42:26;16.25;;;8.88;;
77513;SDS011;66626;48.872;9.084;2024-03-23T04:44:52;16.65;;;7.30;;
77513;SDS011;66626;48.872;9.084;2024-03-23T04:47:18;14.13;;;6.55;;
77513;SDS011;66626;48.872;9.084;2024-03-23T04:49:43;11.88;;;6.63;;
77513;SDS011;66626;48.872;9.084;2024-03-23T04:52:08;15.48;;;7.45;;
77513;SDS011;66626;48.872;9.084;2024-03-23T04:54:34;13.73;;;6.78;;
77513;SDS011;66626;48.872;9.084;2024-03-23T04:56:59;15.63;;;7.68;;
77513;SDS011;66626;48.872;9.084;2024-03-23T04:59:24;14.60;;;7.97;;
77513;SDS011;66626;48.872;9.084;2024-03-23T05:01:50;10.98;;;7.15;;
77513;SDS011;66626;48.872;9.084;2024-03-23T05:04:15;13.70;;;6.97;;
77513;SDS011;66626;48.872;9.084;2024-03-23T05:06:40;16.35;;;7.57;;
77513;SDS011;66626;48.872;9.084;2024-03-23T05:09:06;14.75;;;7.53;;
77513;SDS011;66626;48.872;9.084;2024-03-23T05:11:34;15.68;;;7.35;;
77513;SDS011;66626;48.872;9.084;2024-03-23T05:14:00;16.20;;;7.65;;
77513;SDS011;66626;48.872;9.084;2024-03-23T05:16:26;13.00;;;6.63;;
77513;SDS011;66626;48.872;9.084;2024-03-23T05:18:51;14.40;;;6.50;;
77513;SDS011;66626;48.872;9.084;2024-03-23T05:21:19;16.35;;;8.50;;
77513;SDS011;66626;48.872;9.084;2024-03-23T05:23:47;13.85;;;6.65;;
77513;SDS011;66626;48.872;9.084;2024-03-23T05:26:13;13.85;;;6.35;;
77513;SDS011;66626;48.872;9.084;2024-03-23T05:28:39;12.10;;;6.55;;
77513;SDS011;66626;48.872;9.084;2024-03-23T05:31:04;12.20;;;6.63;;
77513;SDS011;66626;48.872;9.084;2024-03-23T05:33:29;9.50;;;4.75;;
77513;SDS011;66626;48.872;9.084;2024-03-23T05:35:58;9.75;;;5.05;;
77513;SDS011;66626;48.872;9.084;2024-03-23T05:40:53;7.77;;;3.90;;
77513;SDS011;66626;48.872;9.084;2024-03-23T05:43:22;8.50;;;4.30;;
77513;SDS011;66626;48.872;9.084;2024-03-23T05:45:58;7.03;;;3.20;;
77513;SDS011;66626;48.872;9.084;2024-03-23T05:48:27;7.78;;;3.20;;
77513;SDS011;66626;48.872;9.084;2024-03-23T05:50:53;7.70;;;3.85;;
77513;SDS011;66626;48.872;9.084;2024-03-23T05:53:18;8.25;;;3.58;;
77513;SDS011;66626;48.872;9.084;2024-03-23T05:55:47;8.70;;;3.90;;
77513;SDS011;66626;48.872;9.084;2024-03-23T05:58:15;10.07;;;4.25;;
77513;SDS011;66626;48.872;9.084;2024-03-23T06:00:42;9.32;;;4.30;;
77513;SDS011;66626;48.872;9.084;2024-03-23T06:03:07;10.75;;;4.00;;
77513;SDS011;66626;48.872;9.084;2024-03-23T06:05:33;4.90;;;2.22;;
77513;SDS011;66626;48.872;9.084;2024-03-23T06:07:58;8.95;;;4.43;;
77513;SDS011;66626;48.872;9.084;2024-03-23T06:10:24;7.80;;;3.45;;
77513;SDS011;66626;48.872;9.084;2024-03-23T06:12:49;6.10;;;1.92;;
77513;SDS011;66626;48.872;9.084;2024-03-23T06:15:17;6.00;;;2.83;;
77513;SDS011;66626;48.872;9.084;2024-03-23T06:17:45;5.95;;;2.47;;
77513;SDS011;66626;48.872;9.084;2024-03-23T06:20:12;7.22;;;3.35;;
77513;SDS011;66626;48.872;9.084;2024-03-23T06:22:37;5.07;;;2.63;;
77513;SDS011;66626;48.872;9.084;2024-03-23T06:25:03;7.45;;;2.90;;
77513;SDS011;66626;48.872;9.084;2024-03-23T06:27:28;4.95;;;1.85;;
77513;SDS011;66626;48.872;9.084;2024-03-23T06:29:54;5.50;;;1.85;;
77513;SDS011;66626;48.872;9.084;2024-03-23T06:32:20;4.78;;;1.90;;
77513;SDS011;66626;48.872;9.084;2024-03-23T06:34:45;6.18;;;1.73;;
77513;SDS011;66626;48.872;9.084;2024-03-23T06:37:11;8.27;;;1.83;;
77513;SDS011;66626;48.872;9.084;2024-03-23T06:39:36;6.18;;;1.90;;
77513;SDS011;66626;48.872;9.084;2024-03-23T06:42:02;4.80;;;1.23;;
77513;SDS011;66626;48.872;9.084;2024-03-23T06:44:30;4.47;;;1.42;;
77513;SDS011;66626;48.872;9.084;2024-03-23T06:46:57;3.72;;;1.25;;
77513;SDS011;66626;48.872;9.084;2024-03-23T06:49:25;3.03;;;1.25;;
77513;SDS011;66626;48.872;9.084;2024-03-23T06:51:50;2.47;;;1.02;;
77513;SDS011;66626;48.872;9.084;2024-03-23T06:54:19;1.60;;;0.80;;
77513;SDS011;66626;48.872;9.084;2024-03-23T06:56:44;1.85;;;0.63;;
77513;SDS011;66626;48.872;9.084;2024-03-23T06:59:10;2.22;;;0.90;;
77513;SDS011;66626;48.872;9.084;2024-03-23T07:01:35;1.17;;;0.50;;
77513;SDS011;66626;48.872;9.084;2024-03-23T07:04:00;1.17;;;0.50;;
77513;SDS011;66626;48.872;9.084;2024-03-23T07:06:26;1.55;;;0.70;;
77513;SDS011;66626;48.872;9.084;2024-03-23T07:08:52;2.13;;;0.90;;
77513;SDS011;66626;48.872;9.084;2024-03-23T07:11:21;1.90;;;0.73;;
77513;SDS011;66626;48.872;9.084;2024-03-23T07:13:49;3.67;;;1.20;;
77513;SDS011;66626;48.872;9.084;2024-03-23T07:16:15;1.27;;;0.73;;
77513;SDS011;66626;48.872;9.084;2024-03-23T07:18:41;2.03;;;0.82;;
77513;SDS011;66626;48.872;9.084;2024-03-23T07:21:06;1.08;;;0.50;;
77513;SDS011;66626;48.872;9.084;2024-03-23T07:23:32;1.70;;;0.75;;
77513;SDS011;66626;48.872;9.084;2024-03-23T07:25:58;2.25;;;0.75;;
77513;SDS011;66626;48.872;9.084;2024-03-23T07:28:23;1.45;;;0.77;;
77513;SDS011;66626;48.872;9.084;2024-03-23T07:31:10;1.58;;;0.60;;
77513;SDS011;66626;48.872;9.084;2024-03-23T07:33:37;1.85;;;0.80;;
77513;SDS011;66626;48.872;9.084;2024-03-23T07:36:08;1.45;;;0.60;;
77513;SDS011;66626;48.872;9.084;2024-03-23T07:38:35;1.73;;;0.60;;
77513;SDS011;66626;48.872;9.084;2024-03-23T07:41:07;1.63;;;0.60;;
77513;SDS011;66626;48.872;9.084;2024-03-23T07:43:33;1.70;;;0.60;;
77513;SDS011;66626;48.872;9.084;2024-03-23T07:45:59;1.98;;;0.80;;
77513;SDS011;66626;48.872;9.084;2024-03-23T07:48:24;2.38;;;0.70;;
77513;SDS011;66626;48.872;9.084;2024-03-23T07:51:04;1.40;;;0.43;;
77513;SDS011;66626;48.872;9.084;2024-03-23T07:53:31;0.93;;;0.52;;
77513;SDS011;66626;48.872;9.084;2024-03-23T07:56:07;2.30;;;0.80;;
77513;SDS011;66626;48.872;9.084;2024-03-23T08:01:05;3.25;;;0.95;;
77513;SDS011;66626;48.872;9.084;2024-03-23T08:03:33;2.65;;;0.90;;
77513;SDS011;66626;48.872;9.084;2024-03-23T08:06:06;1.73;;;0.65;;
77513;SDS011;66626;48.872;9.084;2024-03-23T08:08:38;1.35;;;0.50;;
77513;SDS011;66626;48.872;9.084;2024-03-23T08:11:04;2.42;;;0.57;;
77513;SDS011;66626;48.872;9.084;2024-03-23T08:13:29;1.38;;;0.43;;
77513;SDS011;66626;48.872;9.084;2024-03-23T08:15:56;1.73;;;0.65;;
77513;SDS011;66626;48.872;9.084;2024-03-23T08:18:24;1.30;;;0.60;;
77513;SDS011;66626;48.872;9.084;2024-03-23T08:20:59;0.65;;;0.47;;
77513;SDS011;66626;48.872;9.084;2024-03-23T08:23:25;2.03;;;0.60;;
77513;SDS011;66626;48.872;9.084;2024-03-23T08:25:52;1.83;;;0.50;;
77513;SDS011;66626;48.872;9.084;2024-03-23T08:28:17;1.05;;;0.50;;
77513;SDS011;66626;48.872;9.084;2024-03-23T08:30:43;1.13;;;0.30;;
77513;SDS011;66626;48.872;9.084;2024-03-23T08:33:08;1.88;;;0.80;;
77513;SDS011;66626;48.872;9.084;2024-03-23T08:35:33;0.93;;;0.40;;
77513;SDS011;66626;48.872;9.084;2024-03-23T08:37:59;2.53;;;0.80;;
77513;SDS011;66626;48.872;9.084;2024-03-23T08:40:25;2.08;;;0.80;;
77513;SDS011;66626;48.872;9.084;2024-03-23T08:42:50;2.50;;;0.93;;
77513;SDS011;66626;48.872;9.084;2024-03-23T08:45:15;3.00;;;0.95;;
77513;SDS011;66626;48.872;9.084;2024-03-23T08:47:41;3.30;;;1.23;;
77513;SDS011;66626;48.872;9.084;2024-03-23T08:50:06;4.43;;;1.30;;
77513;SDS011;66626;48.872;9.084;2024-03-23T08:52:32;3.25;;;0.88;;
77513;SDS011;66626;48.872;9.084;2024-03-23T08:54:58;3.53;;;1.25;;
77513;SDS011;66626;48.872;9.084;2024-03-23T08:57:23;5.85;;;1.73;;
77513;SDS011;66626;48.872;9.084;2024-03-23T08:59:49;4.40;;;1.25;;
77513;SDS011;66626;48.872;9.084;2024-03-23T09:02:14;4.20;;;1.10;;
77513;SDS011;66626;48.872;9.084;2024-03-23T09:04:40;5.25;;;1.02;;
77513;SDS011;66626;48.872;9.084;2024-03-23T09:07:05;5.15;;;1.40;;
77513;SDS011;66626;48.872;9.084;2024-03-23T09:09:30;6.57;;;1.98;;
77513;SDS011;66626;48.872;9.084;2024-03-23T09:11:57;8.80;;;2.50;;
77513;SDS011;66626;48.872;9.084;2024-03-23T09:14:23;4.75;;;2.03;;
77513;SDS011;66626;48.872;9.084;2024-03-23T09:16:51;5.70;;;2.22;;
77513;SDS011;66626;48.872;9.084;2024-03-23T09:19:19;5.00;;;1.83;;
77513;SDS011;66626;48.872;9.084;2024-03-23T09:21:45;7.80;;;2.38;;
77513;SDS011;66626;48.872;9.084;2024-03-23T09:24:10;7.38;;;2.35;;
77513;SDS011;66626;48.872;9.084;2024-03-23T09:26:35;6.15;;;1.98;;
77513;SDS011;66626;48.872;9.084;2024-03-23T09:29:01;5.22;;;2.03;;
77513;SDS011;66626;48.872;9.084;2024-03-23T09:31:26;9.25;;;2.53;;
77513;SDS011;66626;48.872;9.084;2024-03-23T09:33:51;8.30;;;2.38;;
77513;SDS011;66626;48.872;9.084;2024-03-23T09:36:16;4.57;;;1.90;;
77513;SDS011;66626;48.872;9.084;2024-03-23T09:38:42;3.92;;;1.77;;
77513;SDS011;66626;48.872;9.084;2024-03-23T09:41:10;5.35;;;2.00;;
77513;SDS011;66626;48.872;9.084;2024-03-23T09:43:35;9.25;;;2.60;;
77513;SDS011;66626;48.872;9.084;2024-03-23T09:46:03;4.82;;;1.88;;
77513;SDS011;66626;48.872;9.084;2024-03-23T09:48:28;7.20;;;2.20;;
77513;SDS011;66626;48.872;9.084;2024-03-23T09:50:54;6.32;;;1.95;;
77513;SDS011;66626;48.872;9.084;2024-03-23T09:53:20;4.82;;;1.90;;
77513;SDS011;66626;48.872;9.084;2024-03-23T09:55:47;7.70;;;1.55;;
77513;SDS011;66626;48.872;9.084;2024-03-23T09:58:13;5.57;;;2.25;;
77513;SDS011;66626;48.872;9.084;2024-03-23T10:00:41;6.75;;;1.88;;
77513;SDS011;66626;48.872;9.084;2024-03-23T10:03:06;5.97;;;2.10;;
77513;SDS011;66626;48.872;9.084;2024-03-23T10:05:32;5.97;;;1.98;;
77513;SDS011;66626;48.872;9.084;2024-03-23T10:07:59;4.75;;;2.13;;
77513;SDS011;66626;48.872;9.084;2024-03-23T10:10:25;6.00;;;2.10;;
77513;SDS011;66626;48.872;9.084;2024-03-23T10:12:51;7.50;;;2.35;;
77513;SDS011;66626;48.872;9.084;2024-03-23T10:15:23;6.43;;;2.20;;
77513;SDS011;66626;48.872;9.084;2024-03-23T10:17:49;5.13;;;1.77;;
77513;SDS011;66626;48.872;9.084;2024-03-23T10:20:20;4.68;;;2.20;;
77513;SDS011;66626;48.872;9.084;2024-03-23T10:22:47;7.47;;;1.98;;
77513;SDS011;66626;48.872;9.084;2024-03-23T10:25:14;4.82;;;1.73;;
77513;SDS011;66626;48.872;9.084;2024-03-23T10:27:40;4.88;;;1.70;;
77513;SDS011;66626;48.872;9.084;2024-03-23T10:30:09;7.32;;;1.75;;
77513;SDS011;66626;48.872;9.084;2024-03-23T10:32:41;4.80;;;1.98;;
77513;SDS011;66626;48.872;9.084;2024-03-23T10:37:46;7.90;;;3.10;;
77513;SDS011;66626;48.872;9.084;2024-03-23T10:40:12;5.13;;;1.75;;
77513;SDS011;66626;48.872;9.084;2024-03-23T10:42:38;6.78;;;2.13;;
77513;SDS011;66626;48.872;9.084;2024-03-23T10:45:04;4.22;;;1.83;;
77513;SDS011;66626;48.872;9.084;2024-03-23T10:47:30;5.38;;;1.83;;
77513;SDS011;66626;48.872;9.084;2024-03-23T10:49:56;5.80;;;2.22;;
77513;SDS011;66626;48.872;9.084;2024-03-23T10:52:22;4.10;;;1.98;;
77513;SDS011;66626;48.872;9.084;2024-03-23T10:54:47;19.45;;;3.53;;
77513;SDS011;66626;48.872;9.084;2024-03-23T10:57:17;5.70;;;2.72;;
77513;SDS011;66626;48.872;9.084;2024-03-23T10:59:43;10.10;;;2.45;;
77513;SDS011;66626;48.872;9.084;2024-03-23T11:02:17;8.20;;;2.55;;
77513;SDS011;66626;48.872;9.084;2024-03-23T11:04:44;6.22;;;2.35;;
77513;SDS011;66626;48.872;9.084;2024-03-23T11:09:56;8.50;;;2.33;;
77513;SDS011;66626;48.872;9.084;2024-03-23T11:14:54;5.15;;;2.50;;
77513;SDS011;66626;48.872;9.084;2024-03-23T11:17:21;4.93;;;2.60;;
77513;SDS011;66626;48.872;9.084;2024-03-23T11:19:55;5.05;;;2.67;;
77513;SDS011;66626;48.872;9.084;2024-03-23T11:22:43;11.45;;;3.28;;
77513;SDS011;66626;48.872;9.084;2024-03-23T11:25:22;5.80;;;2.65;;
77513;SDS011;66626;48.872;9.084;2024-03-23T11:27:54;4.35;;;1.95;;
77513;SDS011;66626;48.872;9.084;2024-03-23T11:30:22;7.18;;;2.78;;
77513;SDS011;66626;48.872;9.084;2024-03-23T11:32:49;4.68;;;2.20;;
77513;SDS011;66626;48.872;9.084;2024-03-23T11:38:02;9.13;;;2.92;;
77513;SDS011;66626;48.872;9.084;2024-03-23T11:40:30;4.55;;;1.90;;
77513;SDS011;66626;48.872;9.084;2024-03-23T11:42:57;5.65;;;2.63;;
77513;SDS011;66626;48.872;9.084;2024-03-23T11:45:23;6.03;;;2.33;;
77513;SDS011;66626;48.872;9.084;2024-03-23T11:47:48;4.38;;;1.63;;
77513;SDS011;66626;48.872;9.084;2024-03-23T11:50:20;5.13;;;1.85;;
77513;SDS011;66626;48.872;9.084;2024-03-23T11:52:45;6.07;;;2.10;;
77513;SDS011;66626;48.872;9.084;2024-03-23T11:55:11;5.85;;;1.75;;
77513;SDS011;66626;48.872;9.084;2024-03-23T11:57:36;3.97;;;1.52;;
77513;SDS011;66626;48.872;9.084;2024-03-23T12:00:01;3.35;;;1.02;;
77513;SDS011;66626;48.872;9.084;2024-03-23T12:02:27;3.97;;;1.60;;
77513;SDS011;66626;48.872;9.084;2024-03-23T12:04:53;4.22;;;1.08;;
77513;SDS011;66626;48.872;9.084;2024-03-23T12:07:21;2.70;;;1.40;;
77513;SDS011;66626;48.872;9.084;2024-03-23T12:10:08;4.18;;;1.10;;
77513;SDS011;66626;48.872;9.084;2024-03-23T12:12:32;5.53;;;1.30;;
77513;SDS011;66626;48.872;9.084;2024-03-23T12:15:04;10.50;;;1.83;;
77513;SDS011;66626;48.872;9.084;2024-03-23T12:17:31;3.45;;;1.25;;
77513;SDS011;66626;48.872;9.084;2024-03-23T12:19:56;5.70;;;1.77;;
77513;SDS011;66626;48.872;9.084;2024-03-23T12:22:22;4.97;;;1.50;;
77513;SDS011;66626;48.872;9.084;2024-03-23T12:24:48;4.00;;;1.42;;
77513;SDS011;66626;48.872;9.084;2024-03-23T12:27:14;4.97;;;1.50;;
77513;SDS011;66626;48.872;9.084;2024-03-23T12:29:40;3.50;;;1.33;;
77513;SDS011;66626;48.872;9.084;2024-03-23T12:32:06;6.50;;;1.30;;
77513;SDS011;66626;48.872;9.084;2024-03-23T12:34:32;3.90;;;1.30;;
77513;SDS011;66626;48.872;9.084;2024-03-23T12:36:57;4.43;;;1.48;;
77513;SDS011;66626;48.872;9.084;2024-03-23T12:39:23;5.80;;;2.22;;
77513;SDS011;66626;48.872;9.084;2024-03-23T12:41:48;5.10;;;1.17;;
77513;SDS011;66626;48.872;9.084;2024-03-23T12:44:14;4.07;;;1.05;;
77513;SDS011;66626;48.872;9.084;2024-03-23T12:46:40;4.72;;;1.75;;
77513;SDS011;66626;48.872;9.084;2024-03-23T12:49:06;4.88;;;1.70;;
77513;SDS011;66626;48.872;9.084;2024-03-23T12:51:31;8.68;;;2.30;;
77513;SDS011;66626;48.872;9.084;2024-03-23T12:53:57;7.50;;;2.42;;
77513;SDS011;66626;48.872;9.084;2024-03-23T12:56:22;4.03;;;1.65;;
77513;SDS011;66626;48.872;9.084;2024-03-23T12:58:48;4.72;;;1.90;;
77513;SDS011;66626;48.872;9.084;2024-03-23T13:01:16;11.10;;;1.60;;
77513;SDS011;66626;48.872;9.084;2024-03-23T13:03:47;5.43;;;1.50;;
77513;SDS011;66626;48.872;9.084;2024-03-23T13:06:12;6.00;;;1.17;;
77513;SDS011;66626;48.872;9.084;2024-03-23T13:08:38;5.50;;;2.03;;
77513;SDS011;66626;48.872;9.084;2024-03-23T13:11:05;7.65;;;1.58;;
77513;SDS011;66626;48.872;9.084;2024-03-23T13:13:31;5.93;;;1.55;;
77513;SDS011;66626;48.872;9.084;2024-03-23T13:15:58;4.13;;;1.38;;
77513;SDS011;66626;48.872;9.084;2024-03-23T13:18:23;4.07;;;1.50;;
77513;SDS011;66626;48.872;9.084;2024-03-23T13:20:48;6.47;;;1.50;;
77513;SDS011;66626;48.872;9.084;2024-03-23T13:23:17;3.10;;;1.27;;
77513;SDS011;66626;48.872;9.084;2024-03-23T13:25:49;4.80;;;1.30;;
77513;SDS011;66626;48.872;9.084;2024-03-23T13:28:15;5.57;;;1.60;;
77513;SDS011;66626;48.872;9.084;2024-03-23T13:30:49;5.47;;;1.90;;
77513;SDS011;66626;48.872;9.084;2024-03-23T13:33:15;5.10;;;1.13;;
77513;SDS011;66626;48.872;9.084;2024-03-23T13:35:40;4.70;;;1.30;;
77513;SDS011;66626;48.872;9.084;2024-03-23T13:38:14;4.38;;;1.08;;
77513;SDS011;66626;48.872;9.084;2024-03-23T13:40:39;2.60;;;1.00;;
77513;SDS011;66626;48.872;9.084;2024-03-23T13:43:04;4.22;;;1.10;;
77513;SDS011;66626;48.872;9.084;2024-03-23T13:45:30;4.82;;;1.67;;
77513;SDS011;66626;48.872;9.084;2024-03-23T13:47:55;2.50;;;0.95;;
77513;SDS011;66626;48.872;9.084;2024-03-23T13:50:22;5.03;;;1.20;;
77513;SDS011;66626;48.872;9.084;2024-03-23T13:52:47;7.57;;;1.70;;
77513;SDS011;66626;48.872;9.084;2024-03-23T13:55:13;2.83;;;0.95;;
77513;SDS011;66626;48.872;9.084;2024-03-23T13:57:40;9.20;;;1.85;;
77513;SDS011;66626;48.872;9.084;2024-03-23T14:00:07;1.42;;;0.60;;
77513;SDS011;66626;48.872;9.084;2024-03-23T14:02:34;1.63;;;0.70;;
77513;SDS011;66626;48.872;9.084;2024-03-23T14:05:01;8.20;;;1.20;;
77513;SDS011;66626;48.872;9.084;2024-03-23T14:07:27;5.50;;;1.40;;
77513;SDS011;66626;48.872;9.084;2024-03-23T14:09:52;1.77;;;0.77;;
77513;SDS011;66626;48.872;9.084;2024-03-23T14:12:20;7.38;;;1.33;;
77513;SDS011;66626;48.872;9.084;2024-03-23T14:14:45;2.67;;;0.63;;
77513;SDS011;66626;48.872;9.084;2024-03-23T14:17:11;2.78;;;1.13;;
77513;SDS011;66626;48.872;9.084;2024-03-23T14:19:39;2.58;;;1.10;;
77513;SDS011;66626;48.872;9.084;2024-03-23T14:22:04;4.45;;;1.20;;
77513;SDS011;66626;48.872;9.084;2024-03-23T14:24:32;3.63;;;1.15;;
77513;SDS011;66626;48.872;9.084;2024-03-23T14:26:58;3.10;;;0.65;;
77513;SDS011;66626;48.872;9.084;2024-03-23T14:29:23;4.50;;;1.20;;
77513;SDS011;66626;48.872;9.084;2024-03-23T14:31:49;3.30;;;1.27;;
77513;SDS011;66626;48.872;9.084;2024-03-23T14:34:14;1.75;;;0.82;;
77513;SDS011;66626;48.872;9.084;2024-03-23T14:36:40;2.60;;;0.90;;
77513;SDS011;66626;48.872;9.084;2024-03-23T14:39:05;4.47;;;1.10;;
77513;SDS011;66626;48.872;9.084;2024-03-23T14:41:31;2.20;;;0.85;;
77513;SDS011;66626;48.872;9.084;2024-03-23T14:43:57;4.68;;;1.08;;
77513;SDS011;66626;48.872;9.084;2024-03-23T14:46:22;3.80;;;1.10;;
77513;SDS011;66626;48.872;9.084;2024-03-23T14:48:48;2.97;;;1.00;;
77513;SDS011;66626;48.872;9.084;2024-03-23T14:51:14;3.72;;;0.98;;
77513;SDS011;66626;48.872;9.084;2024-03-23T14:53:40;6.70;;;1.98;;
77513;SDS011;66626;48.872;9.084;2024-03-23T14:56:06;3.50;;;1.50;;
77513;SDS011;66626;48.872;9.084;2024-03-23T14:58:32;4.75;;;1.30;;
77513;SDS011;66626;48.872;9.084;2024-03-23T15:01:06;3.95;;;1.05;;
77513;SDS011;66626;48.872;9.084;2024-03-23T15:03:34;1.73;;;0.57;;
77513;SDS011;66626;48.872;9.084;2024-03-23T15:06:00;3.70;;;0.90;;
77513;SDS011;66626;48.872;9.084;2024-03-23T15:08:26;2.70;;;0.82;;
77513;SDS011;66626;48.872;9.084;2024-03-23T15:10:53;2.85;;;0.88;;
77513;SDS011;66626;48.872;9.084;2024-03-23T15:13:18;2.92;;;0.90;;
77513;SDS011;66626;48.872;9.084;2024-03-23T15:15:44;2.28;;;0.70;;
77513;SDS011;66626;48.872;9.084;2024-03-23T15:18:12;1.95;;;0.82;;
77513;SDS011;66626;48.872;9.084;2024-03-23T15:20:38;2.38;;;1.15;;
77513;SDS011;66626;48.872;9.084;2024-03-23T15:23:07;5.78;;;1.00;;
77513;SDS011;66626;48.872;9.084;2024-03-23T15:25:33;3.13;;;1.10;;
77513;SDS011;66626;48.872;9.084;2024-03-23T15:27:58;2.20;;;0.90;;
77513;SDS011;66626;48.872;9.084;2024-03-23T15:30:25;2.95;;;1.13;;
77513;SDS011;66626;48.872;9.084;2024-03-23T15:32:50;5.00;;;1.00;;
77513;SDS011;66626;48.872;9.084;2024-03-23T15:35:17;1.83;;;0.70;;
77513;SDS011;66626;48.872;9.084;2024-03-23T15:37:42;2.60;;;0.88;;
77513;SDS011;66626;48.872;9.084;2024-03-23T15:40:08;3.47;;;0.98;;
77513;SDS011;66626;48.872;9.084;2024-03-23T15:42:35;3.17;;;1.00;;
77513;SDS011;66626;48.872;9.084;2024-03-23T15:45:00;3.45;;;1.27;;
77513;SDS011;66626;48.872;9.084;2024-03-23T15:47:25;2.75;;;0.70;;
77513;SDS011;66626;48.872;9.084;2024-03-23T15:49:51;0.50;;;0.15;;